Weather History for Chariton, IA

Change the Weather History Date:

Saturday, January 11, 2014

  Actual Average Record
Temperature  
Mean Temperature 30 °F -  
Max Temperature 37 °F 29 °F 55 °F (2002)
Min Temperature 24 °F 7 °F -22 °F (1977)
Degree Days  
Heating Degree Days 34    
Moisture  
Dew Point 27 °F    
Average Humidity 86    
Maximum Humidity 100    
Minimum Humidity 65    
Precipitation  
Precipitation 0.00 in - - ()
Sea Level Pressure  
Sea Level Pressure 29.71 in    
Wind  
Wind Speed 11 mph (West)    
Max Wind Speed 21 mph    
Max Gust Speed 26 mph    
Visibility 8 miles    
Events      
Averages and records for this station are not official NWS values.
T = Trace of Precipitation, MM = Missing Value Source: NWS Daily Summary

Daily Weather History Graph

Daily Weather History Graph

Search for Another Location

Airport:

Trip Planner

Search our weather history database for the weather conditions in past years. The results will help you decide how hot, cold, wet, or windy it might be!

Date:

Astronomy

Jan. 11, 2014 Rise Set
Actual Time 7:37 AM CST 5:05 PM CST
Civil Twilight 7:07 AM CST 5:36 PM CST
Nautical Twilight 6:32 AM CST 6:10 PM CST
Astronomical Twilight 5:59 AM CST 6:43 PM CST
Moon 1:50 PM CST (1/11) 3:42 AM CST (1/11)
Length of Visible Light 10h 29m
Length of Day
9h 28m
Waxing Gibbous, 83% of the Moon is Illuminated
Jan 11
Waxing Gibbous
Jan 15
Full
Jan 23
Last Quarter
Jan 30
New
Feb 6
First Quarter

Hourly Weather History & Observations

Time (CST) Temp. Windchill Dew Point Humidity Pressure Visibility Wind Dir Wind Speed Gust Speed Precip Events Conditions
12:15 AM 33.8 °F 27.0 °F 32.0 °F 93% 29.55 in 6.0 mi West 8.1 mph - N/A   Overcast
12:35 AM 33.8 °F 27.0 °F 32.0 °F 93% 29.55 in 5.0 mi West 8.1 mph - N/A   Overcast
12:55 AM 33.8 °F 27.0 °F 32.0 °F 93% 29.55 in 5.0 mi West 8.1 mph - N/A   Overcast
1:15 AM 33.8 °F 26.4 °F 32.0 °F 93% 29.55 in 5.0 mi West 9.2 mph - N/A   Overcast
1:35 AM 33.8 °F 25.8 °F 32.0 °F 93% 29.56 in 6.0 mi WNW 10.4 mph - N/A   Overcast
1:55 AM 33.8 °F 23.9 °F 32.0 °F 93% 29.56 in 5.0 mi WNW 15.0 mph 21.9 mph N/A   Overcast
2:15 AM 33.8 °F 24.8 °F 32.0 °F 93% 29.56 in 5.0 mi WNW 12.7 mph - N/A   Overcast
2:35 AM 33.8 °F 25.3 °F 32.0 °F 93% 29.57 in 5.0 mi WNW 11.5 mph 20.7 mph N/A   Overcast
2:55 AM 33.8 °F 24.8 °F 32.0 °F 93% 29.57 in 5.0 mi WNW 12.7 mph - N/A   Overcast
3:15 AM 32.0 °F 21.6 °F 32.0 °F 100% 29.58 in 5.0 mi WNW 15.0 mph 20.7 mph N/A   Overcast
3:35 AM 32.0 °F 22.1 °F 32.0 °F 100% 29.58 in 5.0 mi WNW 13.8 mph - N/A   Overcast
3:55 AM 33.8 °F 24.8 °F 30.2 °F 87% 29.58 in 5.0 mi WNW 12.7 mph 23.0 mph N/A   Overcast
4:15 AM 32.0 °F 22.1 °F 30.2 °F 93% 29.58 in 6.0 mi WNW 13.8 mph 19.6 mph N/A   Overcast
4:35 AM 32.0 °F 22.5 °F 30.2 °F 93% 29.59 in 5.0 mi WNW 12.7 mph - N/A   Mostly Cloudy
4:55 AM 32.0 °F 23.6 °F 30.2 °F 93% 29.60 in 4.0 mi West 10.4 mph - N/A   Clear
5:15 AM 32.0 °F 23.0 °F 30.2 °F 93% 29.60 in 4.0 mi West 11.5 mph - N/A   Clear
5:35 AM 32.0 °F 23.6 °F 30.2 °F 93% 29.60 in 4.0 mi West 10.4 mph - N/A   Clear
5:55 AM 32.0 °F 23.6 °F 30.2 °F 93% 29.62 in 4.0 mi West 10.4 mph - N/A   Clear
6:15 AM 30.2 °F 20.8 °F 28.4 °F 93% 29.62 in 4.0 mi West 11.5 mph - N/A   Clear
6:35 AM 30.2 °F 20.8 °F 28.4 °F 93% 29.62 in 5.0 mi West 11.5 mph - N/A   Clear
6:55 AM 30.2 °F 21.9 °F 28.4 °F 93% 29.62 in 5.0 mi West 9.2 mph - N/A   Clear
7:15 AM 30.2 °F 20.2 °F 26.6 °F 86% 29.63 in 6.0 mi West 12.7 mph - N/A   Clear
7:35 AM 30.2 °F 21.9 °F 26.6 °F 86% 29.64 in 4.0 mi WSW 9.2 mph - N/A   Clear
7:55 AM 28.4 °F 20.4 °F 26.6 °F 93% 29.64 in 4.0 mi WSW 8.1 mph - N/A   Clear
8:15 AM 28.4 °F 19.7 °F 26.6 °F 93% 29.66 in 4.0 mi West 9.2 mph - N/A   Clear
8:35 AM 30.2 °F 20.2 °F 26.6 °F 86% 29.65 in 4.0 mi West 12.7 mph - N/A   Clear
8:55 AM 30.2 °F 20.2 °F 26.6 °F 86% 29.67 in 6.0 mi West 12.7 mph - N/A   Haze
9:15 AM 30.2 °F 19.8 °F 24.8 °F 80% 29.67 in 8.0 mi West 13.8 mph - N/A   Clear
9:35 AM 32.0 °F 22.1 °F 24.8 °F 75% 29.68 in 9.0 mi West 13.8 mph - N/A   Clear
9:55 AM 32.0 °F 22.1 °F 26.6 °F 80% 29.69 in 9.0 mi West 13.8 mph - N/A   Clear
10:15 AM 32.0 °F 22.1 °F 26.6 °F 80% 29.69 in 10.0 mi West 13.8 mph - N/A   Clear
10:35 AM 32.0 °F 21.6 °F 24.8 °F 75% 29.69 in 10.0 mi West 15.0 mph - N/A   Clear
10:55 AM 33.8 °F 24.3 °F 26.6 °F 75% 29.69 in 10.0 mi WNW 13.8 mph - N/A   Clear
11:15 AM 33.8 °F 24.8 °F 26.6 °F 75% 29.69 in 10.0 mi West 12.7 mph - N/A   Clear
11:35 AM 35.6 °F 25.2 °F 26.6 °F 70% 29.70 in 10.0 mi WNW 18.4 mph - N/A   Clear
11:55 AM 35.6 °F 25.9 °F 26.6 °F 70% 29.69 in 10.0 mi WNW 16.1 mph 23.0 mph N/A   Clear
12:15 PM 35.6 °F 24.5 °F 26.6 °F 70% 29.69 in 10.0 mi NW 20.7 mph - N/A   Clear
12:35 PM 35.6 °F 25.9 °F 26.6 °F 70% 29.69 in 10.0 mi NW 16.1 mph - N/A   Clear
12:55 PM 35.6 °F 25.5 °F 26.6 °F 70% 29.69 in 10.0 mi WNW 17.3 mph 25.3 mph N/A   Clear
1:15 PM 35.6 °F 25.5 °F 26.6 °F 70% 29.69 in 10.0 mi NW 17.3 mph 24.2 mph N/A   Clear
1:35 PM 37.4 °F 28.2 °F 26.6 °F 65% 29.70 in 10.0 mi WNW 16.1 mph - N/A   Clear
1:55 PM 37.4 °F 27.5 °F 28.4 °F 70% 29.71 in 10.0 mi WNW 18.4 mph - N/A   Partly Cloudy
2:15 PM 35.6 °F 25.5 °F 28.4 °F 75% 29.72 in 10.0 mi WNW 17.3 mph 26.5 mph N/A   Partly Cloudy
2:35 PM 35.6 °F 24.8 °F 28.4 °F 75% 29.72 in 10.0 mi WNW 19.6 mph - N/A   Scattered Clouds
2:55 PM 33.8 °F 23.5 °F 28.4 °F 81% 29.74 in 10.0 mi NW 16.1 mph 23.0 mph N/A   Mostly Cloudy
3:15 PM 32.0 °F 20.5 °F 26.6 °F 80% 29.76 in 10.0 mi NW 18.4 mph 25.3 mph N/A   Mostly Cloudy
3:35 PM 32.0 °F 21.6 °F 26.6 °F 80% 29.77 in 10.0 mi NW 15.0 mph - N/A   Mostly Cloudy
3:55 PM 32.0 °F 20.8 °F 26.6 °F 80% 29.79 in 10.0 mi NW 17.3 mph - N/A   Overcast
4:15 PM 30.2 °F 19.8 °F 26.6 °F 86% 29.79 in 10.0 mi NNW 13.8 mph 19.6 mph N/A   Overcast
4:35 PM 30.2 °F 22.6 °F 26.6 °F 86% 29.80 in 10.0 mi NW 8.1 mph 15.0 mph N/A   Overcast
4:55 PM 30.2 °F 21.9 °F 26.6 °F 86% 29.80 in 10.0 mi NW 9.2 mph - N/A   Mostly Cloudy
5:15 PM 30.2 °F 21.9 °F 26.6 °F 86% 29.81 in 10.0 mi NW 9.2 mph - N/A   Clear
5:35 PM 30.2 °F 24.3 °F 24.8 °F 80% 29.82 in 10.0 mi NW 5.8 mph - N/A   Clear
5:55 PM 28.4 °F 23.3 °F 24.8 °F 86% 29.83 in - WNW 4.6 mph - N/A   Clear
6:15 PM 28.4 °F 24.6 °F 24.8 °F 86% 29.83 in 10.0 mi West 3.5 mph - N/A   Clear
6:35 PM 28.4 °F 23.3 °F 24.8 °F 86% 29.83 in 10.0 mi West 4.6 mph - N/A   Clear
6:55 PM 28.4 °F 24.6 °F 24.8 °F 86% 29.84 in 10.0 mi West 3.5 mph - N/A   Clear
7:15 PM 26.6 °F 22.6 °F 24.8 °F 93% 29.84 in 10.0 mi SW 3.5 mph - N/A   Unknown
7:35 PM 26.6 °F 21.2 °F 24.8 °F 93% 29.84 in 10.0 mi SSW 4.6 mph - N/A   Clear
7:55 PM 26.6 °F 20.0 °F 24.8 °F 93% 29.84 in 10.0 mi SSW 5.8 mph - N/A   Clear
8:15 PM 26.6 °F 20.0 °F 23.0 °F 86% 29.84 in 10.0 mi SSW 5.8 mph - N/A   Clear
8:35 PM 24.8 °F 16.9 °F 23.0 °F 93% 29.83 in 10.0 mi South 6.9 mph - N/A   Clear
8:55 PM 24.8 °F 16.9 °F 23.0 °F 93% 29.84 in 10.0 mi SSW 6.9 mph - N/A   Clear
9:15 PM 24.8 °F 15.3 °F 23.0 °F 93% 29.84 in 10.0 mi SSW 9.2 mph - N/A   Clear
9:35 PM 26.6 °F 18.2 °F 23.0 °F 86% 29.84 in 10.0 mi SSW 8.1 mph - N/A   Clear
9:55 PM 24.8 °F 16.1 °F 23.0 °F 93% 29.84 in 10.0 mi SSW 8.1 mph - N/A   Clear
10:15 PM 26.6 °F 16.8 °F 24.8 °F 93% 29.84 in 10.0 mi SSW 10.4 mph - N/A   Clear
10:35 PM 26.6 °F 18.2 °F 24.8 °F 93% 29.85 in 10.0 mi SSW 8.1 mph - N/A   Clear
10:55 PM 26.6 °F 18.2 °F 23.0 °F 86% 29.84 in 10.0 mi SSW 8.1 mph - N/A   Clear
11:15 PM 26.6 °F 18.2 °F 24.8 °F 93% 29.84 in 10.0 mi SSW 8.1 mph - N/A   Clear
11:35 PM 26.6 °F 17.5 °F 24.8 °F 93% 29.83 in 10.0 mi SSW 9.2 mph - N/A   Clear
11:55 PM 26.6 °F 17.5 °F 24.8 °F 93% 29.82 in 10.0 mi South 9.2 mph - N/A   Clear